createdAt,value
2023-04-18T00:01:57.213Z,65.34
2023-04-18T00:04:26.768Z,65.48
2023-04-18T00:06:54.784Z,65.67
2023-04-18T00:09:24.529Z,65.58
2023-04-18T00:11:52.741Z,65.31
2023-04-18T00:14:21.173Z,65.39
2023-04-18T00:16:49.085Z,65.69
2023-04-18T00:19:18.339Z,65.99
2023-04-18T00:21:47.656Z,66.07
2023-04-18T00:24:15.948Z,65.80
2023-04-18T00:26:43.899Z,66.11
2023-04-18T00:29:11.820Z,65.91
2023-04-18T00:31:39.866Z,66.03
2023-04-18T00:34:07.856Z,66.04
2023-04-18T00:36:35.798Z,66.67
2023-04-18T00:39:05.167Z,66.34
2023-04-18T00:41:33.207Z,66.27
2023-04-18T00:44:01.189Z,66.28
2023-04-18T00:46:29.287Z,66.15
2023-04-18T00:48:57.378Z,66.42
2023-04-18T00:51:25.940Z,66.62
2023-04-18T00:53:55.088Z,66.14
2023-04-18T00:56:25.890Z,66.21
2023-04-18T00:58:54.353Z,66.35
2023-04-18T01:01:22.263Z,66.35
2023-04-18T01:03:50.409Z,66.56
2023-04-18T01:06:18.966Z,66.61
2023-04-18T01:08:47.321Z,66.60
2023-04-18T01:11:15.269Z,66.23
2023-04-18T01:13:44.574Z,66.46
2023-04-18T01:16:12.529Z,66.57
2023-04-18T01:18:40.448Z,66.74
2023-04-18T01:21:09.879Z,66.36
2023-04-18T01:23:38.219Z,66.64
2023-04-18T01:26:08.607Z,66.69
2023-04-18T01:28:38.038Z,66.43
2023-04-18T01:31:06.288Z,66.90
2023-04-18T01:33:37.915Z,66.38
2023-04-18T01:36:06.267Z,66.68
2023-04-18T01:38:34.178Z,67.01
2023-04-18T01:41:02.316Z,66.52
2023-04-18T01:43:31.739Z,67.02
2023-04-18T01:45:59.820Z,66.71
2023-04-18T01:48:29.276Z,66.36
2023-04-18T01:50:57.199Z,66.27
2023-04-18T01:53:25.607Z,66.33
2023-04-18T01:55:53.567Z,66.04
2023-04-18T01:58:23.684Z,66.11
2023-04-18T02:00:54.207Z,66.16
2023-04-18T02:03:22.834Z,66.34
2023-04-18T02:05:51.104Z,66.78
2023-04-18T02:08:19.418Z,66.25
2023-04-18T02:10:47.319Z,66.28
2023-04-18T02:13:16.130Z,66.45
2023-04-18T02:15:45.156Z,65.49
2023-04-18T02:18:17.437Z,66.12
2023-04-18T02:20:45.629Z,66.49
2023-04-18T02:23:13.602Z,66.08
2023-04-18T02:25:41.577Z,65.93
2023-04-18T02:28:10.702Z,66.16
2023-04-18T02:30:38.855Z,66.71
2023-04-18T02:33:06.786Z,66.67
2023-04-18T02:35:38.225Z,66.80
2023-04-18T02:38:06.519Z,66.69
2023-04-18T02:40:34.483Z,66.62
2023-04-18T02:43:02.570Z,66.69
2023-04-18T02:45:30.493Z,67.06
2023-04-18T02:48:00.987Z,66.75
2023-04-18T02:50:29.538Z,67.02
2023-04-18T02:53:00.147Z,66.70
2023-04-18T02:55:38.260Z,66.44
2023-04-18T02:58:06.336Z,67.01
2023-04-18T03:00:54.971Z,66.70
2023-04-18T03:03:44.731Z,66.84
2023-04-18T03:06:32.638Z,67.67
2023-04-18T03:09:05.042Z,67.29
2023-04-18T03:11:36.423Z,66.94
2023-04-18T03:14:05.653Z,67.52
2023-04-18T03:16:50.020Z,67.67
2023-04-18T03:19:22.622Z,67.24
2023-04-18T03:21:52.281Z,67.19
2023-04-18T03:24:21.615Z,67.37
2023-04-18T03:26:52.151Z,67.43
2023-04-18T03:29:23.732Z,67.14
2023-04-18T03:31:52.663Z,66.76
2023-04-18T03:34:20.805Z,67.17
2023-04-18T03:36:49.007Z,67.33
2023-04-18T03:39:18.669Z,67.44
2023-04-18T03:41:47.999Z,67.25
2023-04-18T03:44:16.580Z,67.29
2023-04-18T03:46:45.284Z,67.12
2023-04-18T03:49:13.298Z,67.08
2023-04-18T03:51:47.683Z,67.05
2023-04-18T03:54:16.323Z,67.22
2023-04-18T03:56:45.188Z,66.59
2023-04-18T03:59:16.374Z,66.48
2023-04-18T04:01:48.160Z,66.50
2023-04-18T04:04:16.537Z,66.33
2023-04-18T04:06:44.765Z,66.97
2023-04-18T04:09:13.422Z,66.55
2023-04-18T04:11:41.631Z,66.50
2023-04-18T04:14:13.045Z,66.49
2023-04-18T04:16:47.037Z,67.18
2023-04-18T04:19:20.781Z,67.53
2023-04-18T04:21:56.299Z,66.75
2023-04-18T04:24:24.264Z,67.11
2023-04-18T04:26:53.860Z,66.72
2023-04-18T04:29:25.031Z,67.77
2023-04-18T04:31:55.663Z,67.53
2023-04-18T04:34:34.380Z,67.69
2023-04-18T04:37:05.006Z,67.79
2023-04-18T04:39:39.447Z,68.05
2023-04-18T04:42:42.402Z,67.57
2023-04-18T04:45:17.637Z,68.27
2023-04-18T04:47:48.549Z,67.94
2023-04-18T04:50:16.638Z,68.28
2023-04-18T04:52:44.627Z,67.92
2023-04-18T04:55:12.673Z,67.98
2023-04-18T04:57:42.278Z,67.24
2023-04-18T05:00:30.455Z,67.18
2023-04-18T05:02:59.973Z,67.17
2023-04-18T05:05:28.885Z,67.94
2023-04-18T05:07:58.473Z,67.63
2023-04-18T05:10:26.593Z,66.89
2023-04-18T05:12:54.569Z,67.37
2023-04-18T05:15:22.424Z,66.87
2023-04-18T05:17:50.346Z,67.48
2023-04-18T05:20:19.647Z,66.90
2023-04-18T05:22:47.601Z,66.71
2023-04-18T05:25:15.717Z,66.73
2023-04-18T05:27:44.181Z,66.93
2023-04-18T05:30:12.483Z,67.09
2023-04-18T05:32:40.420Z,67.00
2023-04-18T05:35:09.273Z,66.84
2023-04-18T05:37:38.700Z,67.79
2023-04-18T05:40:08.115Z,66.93
2023-04-18T05:42:36.021Z,66.38
2023-04-18T05:45:03.923Z,66.70
2023-04-18T05:47:33.622Z,66.50
2023-04-18T05:50:01.620Z,65.79
2023-04-18T05:52:29.550Z,65.78
2023-04-18T05:54:58.795Z,65.46
2023-04-18T05:57:26.662Z,65.19
2023-04-18T05:59:54.494Z,64.48
2023-04-18T06:02:24.598Z,64.47
2023-04-18T06:04:52.848Z,64.21
2023-04-18T06:07:21.433Z,64.41
2023-04-18T06:09:49.876Z,64.03
2023-04-18T06:12:19.085Z,63.70
2023-04-18T06:14:47.192Z,63.50
2023-04-18T06:17:15.283Z,63.48
2023-04-18T06:19:43.268Z,63.38
2023-04-18T06:22:11.296Z,63.16
2023-04-18T06:24:39.163Z,63.07
2023-04-18T06:27:10.735Z,62.60
2023-04-18T06:29:44.378Z,62.43
2023-04-18T06:32:12.240Z,62.05
2023-04-18T06:34:40.686Z,61.94
2023-04-18T06:37:08.756Z,62.05
2023-04-18T06:39:36.692Z,61.81
2023-04-18T06:42:04.876Z,62.31
2023-04-18T06:44:33.061Z,62.54
2023-04-18T06:47:02.396Z,62.31
2023-04-18T06:49:30.699Z,62.18
2023-04-18T06:51:58.614Z,61.74
2023-04-18T06:54:26.610Z,61.46
2023-04-18T06:56:54.501Z,61.14
2023-04-18T06:59:23.357Z,61.01
2023-04-18T07:01:52.351Z,61.14
2023-04-18T07:04:21.722Z,60.82
2023-04-18T07:06:49.661Z,60.70
2023-04-18T07:09:17.638Z,60.87
2023-04-18T07:11:45.519Z,60.64
2023-04-18T07:14:13.554Z,60.39
2023-04-18T07:16:41.818Z,60.52
2023-04-18T07:19:09.846Z,60.32
2023-04-18T07:21:40.619Z,60.48
2023-04-18T07:24:08.759Z,60.53
2023-04-18T07:26:36.746Z,60.46
2023-04-18T07:29:05.002Z,60.00
2023-04-18T07:31:33.008Z,60.43
2023-04-18T07:34:01.082Z,60.69
2023-04-18T07:36:29.324Z,60.53
2023-04-18T07:38:58.809Z,60.52
2023-04-18T07:41:26.709Z,60.76
2023-04-18T07:43:54.656Z,60.64
2023-04-18T07:46:22.726Z,61.03
2023-04-18T07:48:50.894Z,61.38
2023-04-18T07:51:18.772Z,61.25
2023-04-18T07:53:46.701Z,61.48
2023-04-18T07:56:16.034Z,61.72
2023-04-18T07:58:43.942Z,61.90
2023-04-18T08:01:14.022Z,61.75
2023-04-18T08:03:42.360Z,61.90
2023-04-18T08:06:10.456Z,61.94
2023-04-18T08:08:38.296Z,61.79
2023-04-18T08:11:06.303Z,61.94
2023-04-18T08:13:35.655Z,62.13
2023-04-18T08:16:03.585Z,62.08
2023-04-18T08:18:31.578Z,61.93
2023-04-18T08:20:59.478Z,61.90
2023-04-18T08:23:27.363Z,61.57
2023-04-18T08:25:55.290Z,61.58
2023-04-18T08:28:23.198Z,61.31
2023-04-18T08:30:52.383Z,61.05
2023-04-18T08:33:20.399Z,60.76
2023-04-18T08:35:48.387Z,60.76
2023-04-18T08:38:17.188Z,60.50
2023-04-18T08:40:45.814Z,60.85
2023-04-18T08:43:15.085Z,60.07
2023-04-18T08:45:43.554Z,60.14
2023-04-18T08:48:14.818Z,60.41
2023-04-18T08:50:43.632Z,59.92
2023-04-18T08:53:11.941Z,59.88
2023-04-18T08:55:40.458Z,59.65
2023-04-18T08:58:08.435Z,59.42
2023-04-18T09:00:36.349Z,58.94
2023-04-18T09:03:04.651Z,59.78
2023-04-18T09:05:35.565Z,59.82
2023-04-18T09:08:23.936Z,60.53
2023-04-18T09:10:51.838Z,60.64
2023-04-18T09:13:38.740Z,61.28
2023-04-18T09:16:07.868Z,61.98
2023-04-18T09:18:36.266Z,62.56
2023-04-18T09:21:19.663Z,62.94
2023-04-18T09:23:47.952Z,62.84
2023-04-18T09:26:33.524Z,62.74
2023-04-18T09:29:03.212Z,63.02
2023-04-18T09:31:31.510Z,63.21
2023-04-18T09:34:00.734Z,63.11
2023-04-18T09:36:31.394Z,63.53
2023-04-18T09:38:59.410Z,62.79
2023-04-18T09:41:27.490Z,63.06
2023-04-18T09:44:13.531Z,62.91
2023-04-18T09:46:46.108Z,62.68
2023-04-18T09:49:15.203Z,62.10
2023-04-18T09:51:46.102Z,61.98
2023-04-18T09:54:16.683Z,62.08
2023-04-18T09:56:45.992Z,61.72
2023-04-18T09:59:21.269Z,61.60
2023-04-18T10:01:50.879Z,61.37
2023-04-18T10:04:19.827Z,61.16
2023-04-18T10:06:49.940Z,60.17
2023-04-18T10:09:18.660Z,60.46
2023-04-18T10:11:46.660Z,59.43
2023-04-18T10:14:17.345Z,58.96
2023-04-18T10:16:48.625Z,58.55
2023-04-18T10:19:22.867Z,58.02
2023-04-18T10:21:57.093Z,57.98
2023-04-18T10:24:52.769Z,57.42
2023-04-18T10:27:40.998Z,57.20
2023-04-18T10:30:09.975Z,56.30
2023-04-18T10:32:37.901Z,55.63
2023-04-18T10:35:06.420Z,56.27
2023-04-18T10:37:36.137Z,56.37
2023-04-18T10:40:06.601Z,56.05
2023-04-18T10:42:59.604Z,55.84
2023-04-18T10:45:28.870Z,55.32
2023-04-18T10:48:24.729Z,54.73
2023-04-18T10:51:15.681Z,54.48
2023-04-18T10:53:52.669Z,54.29
2023-04-18T10:56:21.036Z,54.37
2023-04-18T10:58:51.960Z,53.17
2023-04-18T11:01:31.617Z,52.99
2023-04-18T11:04:00.977Z,52.53
2023-04-18T11:06:30.335Z,52.11
2023-04-18T11:09:12.534Z,52.16
2023-04-18T11:11:41.482Z,51.98
2023-04-18T11:14:09.424Z,51.68
2023-04-18T11:16:38.174Z,51.20
2023-04-18T11:19:23.291Z,50.02
2023-04-18T11:21:52.053Z,49.66
2023-04-18T11:24:24.987Z,49.55
2023-04-18T11:26:55.635Z,48.88
2023-04-18T11:29:23.866Z,48.89
2023-04-18T11:31:54.044Z,49.01
2023-04-18T11:34:29.268Z,49.17
2023-04-18T11:36:57.346Z,48.86
2023-04-18T11:39:26.967Z,48.77
2023-04-18T11:41:57.143Z,48.56
2023-04-18T11:44:25.609Z,48.40
2023-04-18T11:46:53.548Z,48.29
2023-04-18T11:49:29.278Z,48.48
2023-04-18T11:51:57.219Z,47.88
2023-04-18T11:54:39.937Z,48.02
2023-04-18T11:57:20.005Z,48.10
2023-04-18T11:59:52.956Z,48.19
2023-04-18T12:02:22.607Z,48.41
2023-04-18T12:04:53.426Z,48.54
2023-04-18T12:07:46.338Z,48.49
2023-04-18T12:10:27.660Z,48.61
2023-04-18T12:12:58.602Z,48.55
2023-04-18T12:15:28.651Z,48.45
2023-04-18T12:18:01.398Z,48.85
2023-04-18T12:20:37.451Z,49.09
2023-04-18T12:23:05.718Z,49.34
2023-04-18T12:25:35.340Z,49.62
2023-04-18T12:28:04.756Z,49.46
2023-04-18T12:30:36.809Z,49.33
2023-04-18T12:33:06.603Z,48.85
2023-04-18T12:35:34.626Z,47.88
2023-04-18T12:38:03.761Z,47.17
2023-04-18T12:40:32.070Z,46.20
2023-04-18T12:43:03.419Z,45.35
2023-04-18T12:45:31.827Z,45.11
2023-04-18T12:47:59.878Z,44.59
2023-04-18T12:50:28.125Z,43.72
2023-04-18T12:52:58.408Z,43.87
2023-04-18T12:55:26.938Z,41.99
2023-04-18T12:57:55.575Z,42.10
2023-04-18T13:00:29.889Z,42.36
2023-04-18T13:02:58.735Z,42.68
2023-04-18T13:05:30.663Z,43.59
2023-04-18T13:08:12.828Z,43.38
2023-04-18T13:10:44.606Z,43.13
2023-04-18T13:13:12.624Z,43.43
2023-04-18T13:15:42.605Z,42.35
2023-04-18T13:18:10.491Z,42.28
2023-04-18T13:20:38.412Z,42.75
2023-04-18T13:23:06.366Z,42.11
2023-04-18T13:25:34.358Z,40.61
2023-04-18T13:28:02.239Z,40.10
2023-04-18T13:30:30.299Z,38.72
2023-04-18T13:32:59.699Z,38.84
2023-04-18T13:35:27.722Z,37.92
2023-04-18T13:37:55.986Z,37.87
2023-04-18T13:40:24.242Z,38.50
2023-04-18T13:42:52.488Z,39.34
2023-04-18T13:45:20.504Z,40.49
2023-04-18T13:47:48.464Z,40.86
2023-04-18T13:50:17.756Z,39.95
2023-04-18T13:52:47.081Z,39.56
2023-04-18T13:55:16.148Z,39.74
2023-04-18T13:57:44.025Z,41.17
2023-04-18T14:00:14.322Z,40.94
2023-04-18T14:02:42.624Z,40.28
2023-04-18T14:05:10.972Z,40.16
2023-04-18T14:07:40.583Z,40.00
2023-04-18T14:10:09.306Z,39.97
2023-04-18T14:12:37.537Z,39.99
2023-04-18T14:15:06.441Z,39.58
2023-04-18T14:17:34.814Z,40.00
2023-04-18T14:20:04.308Z,39.99
2023-04-18T14:22:32.164Z,39.89
2023-04-18T14:25:01.510Z,39.85
2023-04-18T14:27:29.595Z,40.01
2023-04-18T14:29:57.399Z,39.55
2023-04-18T14:32:25.370Z,39.43
2023-04-18T14:34:53.433Z,39.23
2023-04-18T14:37:22.289Z,39.20
2023-04-18T14:39:50.576Z,39.30
2023-04-18T14:42:19.901Z,39.16
2023-04-18T14:44:48.319Z,39.18
2023-04-18T14:47:16.456Z,38.74
2023-04-18T14:49:44.367Z,38.21
2023-04-18T14:52:12.330Z,38.46
2023-04-18T14:54:40.230Z,38.55
2023-04-18T14:57:08.306Z,38.70
2023-04-18T14:59:37.452Z,38.60
2023-04-18T15:02:05.372Z,38.74
2023-04-18T15:04:33.365Z,38.66
2023-04-18T15:07:01.865Z,38.56
2023-04-18T15:09:29.954Z,39.02
2023-04-18T15:11:58.268Z,39.30
2023-04-18T15:14:26.161Z,39.72
2023-04-18T15:16:55.943Z,38.82
2023-04-18T15:19:23.942Z,39.05
2023-04-18T15:21:52.340Z,39.00
2023-04-18T15:24:20.276Z,39.12
2023-04-18T15:26:48.321Z,38.24
2023-04-18T15:29:16.199Z,37.68
2023-04-18T15:31:45.105Z,37.40
2023-04-18T15:34:14.580Z,37.36
2023-04-18T15:36:42.532Z,37.70
2023-04-18T15:39:10.644Z,37.76
2023-04-18T15:41:39.160Z,37.86
2023-04-18T15:44:08.039Z,38.11
2023-04-18T15:46:37.536Z,38.04
2023-04-18T15:49:05.607Z,38.33
2023-04-18T15:51:34.799Z,38.33
2023-04-18T15:54:02.723Z,38.47
2023-04-18T15:56:33.058Z,37.90
2023-04-18T15:59:05.118Z,37.70
2023-04-18T16:01:33.385Z,37.62
2023-04-18T16:04:01.510Z,37.43
2023-04-18T16:06:31.213Z,37.40
2023-04-18T16:09:00.596Z,36.91
2023-04-18T16:11:28.894Z,36.70
2023-04-18T16:13:56.889Z,36.33
2023-04-18T16:16:24.870Z,36.11
2023-04-18T16:18:52.721Z,36.14
2023-04-18T16:21:20.988Z,36.27
2023-04-18T16:23:49.399Z,36.18
2023-04-18T16:26:18.618Z,36.13
2023-04-18T16:28:48.077Z,35.22
2023-04-18T16:31:16.359Z,35.31
2023-04-18T16:33:45.253Z,35.67
2023-04-18T16:36:13.217Z,35.52
2023-04-18T16:38:41.189Z,36.04
2023-04-18T16:41:09.197Z,36.62
2023-04-18T16:43:38.529Z,36.81
2023-04-18T16:46:06.719Z,37.26
2023-04-18T16:48:37.944Z,37.71
2023-04-18T16:51:06.589Z,37.86
2023-04-18T16:53:34.459Z,38.31
2023-04-18T16:56:03.160Z,38.42
2023-04-18T16:58:31.129Z,38.93
2023-04-18T17:01:02.371Z,39.07
2023-04-18T17:03:30.557Z,38.93
2023-04-18T17:05:58.594Z,39.39
2023-04-18T17:08:28.574Z,39.61
2023-04-18T17:10:56.544Z,39.71
2023-04-18T17:13:27.002Z,39.59
2023-04-18T17:15:55.195Z,39.74
2023-04-18T17:18:24.545Z,39.58
2023-04-18T17:20:52.626Z,39.36
2023-04-18T17:23:21.826Z,39.51
2023-04-18T17:25:49.889Z,39.49
2023-04-18T17:28:18.042Z,39.24
2023-04-18T17:30:46.352Z,39.34
2023-04-18T17:33:14.151Z,39.49
2023-04-18T17:35:43.431Z,39.39
2023-04-18T17:38:11.581Z,39.68
2023-04-18T17:40:40.426Z,39.48
2023-04-18T17:43:08.375Z,39.09
2023-04-18T17:45:37.267Z,39.28
2023-04-18T17:48:05.935Z,38.98
2023-04-18T17:50:36.986Z,39.29
2023-04-18T17:53:06.326Z,38.94
2023-04-18T17:55:34.175Z,38.44
2023-04-18T17:58:02.104Z,37.38
2023-04-18T18:00:31.184Z,37.20
2023-04-18T18:03:01.354Z,37.65
2023-04-18T18:05:30.098Z,37.67
2023-04-18T18:07:58.341Z,38.33
2023-04-18T18:10:28.086Z,38.43
2023-04-18T18:12:56.169Z,38.12
2023-04-18T18:15:25.139Z,38.36
2023-04-18T18:17:53.235Z,38.63
2023-04-18T18:20:21.585Z,39.09
2023-04-18T18:22:49.527Z,39.29
2023-04-18T18:25:17.443Z,39.36
2023-04-18T18:27:46.744Z,39.17
2023-04-18T18:30:14.876Z,39.88
2023-04-18T18:32:42.788Z,40.12
2023-04-18T18:35:10.757Z,39.78
2023-04-18T18:37:38.736Z,40.57
2023-04-18T18:40:08.541Z,40.26
2023-04-18T18:42:36.470Z,40.51
2023-04-18T18:45:07.635Z,40.51
2023-04-18T18:47:37.473Z,40.57
2023-04-18T18:50:07.557Z,40.26
2023-04-18T18:52:35.601Z,40.49
2023-04-18T18:55:03.928Z,40.89
2023-04-18T18:57:32.046Z,40.96
2023-04-18T18:59:59.939Z,41.32
2023-04-18T19:02:29.364Z,41.22
2023-04-18T19:04:57.577Z,40.40
2023-04-18T19:07:25.668Z,40.39
2023-04-18T19:09:55.230Z,39.87
2023-04-18T19:12:23.120Z,40.03
2023-04-18T19:14:51.072Z,40.04
2023-04-18T19:17:21.897Z,40.23
2023-04-18T19:19:51.400Z,40.26
2023-04-18T19:22:19.275Z,40.02
2023-04-18T19:24:47.485Z,40.18
2023-04-18T19:27:15.309Z,39.34
2023-04-18T19:29:43.102Z,38.93
2023-04-18T19:32:11.123Z,39.04
2023-04-18T19:34:39.038Z,38.86
2023-04-18T19:37:08.300Z,38.81
2023-04-18T19:39:36.386Z,38.86
2023-04-18T19:42:05.090Z,39.18
2023-04-18T19:44:32.966Z,39.52
2023-04-18T19:47:00.918Z,39.34
2023-04-18T19:49:28.845Z,39.80
2023-04-18T19:51:56.924Z,40.11
2023-04-18T19:54:26.612Z,39.25
2023-04-18T19:56:54.549Z,39.29
2023-04-18T19:59:22.392Z,39.20
2023-04-18T20:01:50.363Z,39.04
2023-04-18T20:04:18.323Z,39.24
2023-04-18T20:06:46.401Z,39.21
2023-04-18T20:09:16.930Z,39.32
2023-04-18T20:11:48.422Z,39.11
2023-04-18T20:14:16.400Z,39.59
2023-04-18T20:16:45.898Z,39.49
2023-04-18T20:19:14.584Z,39.53
2023-04-18T20:21:42.770Z,39.67
2023-04-18T20:24:10.681Z,39.95
2023-04-18T20:26:38.556Z,40.14
2023-04-18T20:29:08.365Z,41.15
2023-04-18T20:31:37.667Z,41.12
2023-04-18T20:34:05.603Z,41.50
2023-04-18T20:36:34.379Z,41.03
2023-04-18T20:39:03.478Z,40.84
2023-04-18T20:41:32.470Z,40.91
2023-04-18T20:44:05.068Z,41.02
2023-04-18T20:46:34.506Z,41.08
2023-04-18T20:49:02.616Z,40.67
2023-04-18T20:51:31.770Z,40.95
2023-04-18T20:53:59.622Z,41.25
2023-04-18T20:56:27.672Z,41.51
2023-04-18T20:58:55.640Z,41.53
2023-04-18T21:01:23.753Z,41.44
2023-04-18T21:03:53.321Z,41.06
2023-04-18T21:06:22.130Z,41.13
2023-04-18T21:08:50.655Z,41.31
2023-04-18T21:11:18.585Z,41.31
2023-04-18T21:13:46.495Z,41.52
2023-04-18T21:16:14.597Z,41.56
2023-04-18T21:18:42.584Z,41.68
2023-04-18T21:21:12.447Z,41.62
2023-04-18T21:23:43.861Z,41.68
2023-04-18T21:26:13.368Z,41.57
2023-04-18T21:28:58.204Z,41.74
2023-04-18T21:31:27.156Z,41.89
2023-04-18T21:33:55.566Z,42.05
2023-04-18T21:36:26.375Z,41.88
2023-04-18T21:38:55.405Z,42.29
2023-04-18T21:41:24.416Z,42.46
2023-04-18T21:43:52.831Z,42.44
2023-04-18T21:46:21.113Z,42.79
2023-04-18T21:48:49.534Z,42.29
2023-04-18T21:51:17.802Z,42.38
2023-04-18T21:53:47.133Z,42.44
2023-04-18T21:56:15.118Z,42.29
2023-04-18T21:58:43.206Z,41.86
2023-04-18T22:01:11.300Z,42.11
2023-04-18T22:03:39.574Z,41.90
2023-04-18T22:06:10.438Z,42.15
2023-04-18T22:08:38.434Z,42.11
2023-04-18T22:11:09.166Z,42.00
2023-04-18T22:13:37.126Z,41.94
2023-04-18T22:16:05.439Z,42.20
2023-04-18T22:18:34.567Z,42.13
2023-04-18T22:21:03.507Z,42.09
2023-04-18T22:23:31.958Z,42.46
2023-04-18T22:26:00.059Z,42.84
2023-04-18T22:28:29.534Z,43.06
2023-04-18T22:30:57.813Z,43.26
2023-04-18T22:33:26.018Z,43.83
2023-04-18T22:35:54.200Z,44.03
2023-04-18T22:38:22.125Z,44.73
2023-04-18T22:40:50.277Z,45.29
2023-04-18T22:43:22.605Z,45.38
2023-04-18T22:45:52.387Z,45.40
2023-04-18T22:48:20.411Z,45.53
2023-04-18T22:50:49.961Z,45.80
2023-04-18T22:53:18.296Z,45.75
2023-04-18T22:55:46.595Z,45.68
2023-04-18T22:58:14.698Z,46.12
2023-04-18T23:00:43.144Z,46.13
2023-04-18T23:03:12.552Z,46.16
2023-04-18T23:05:41.358Z,46.56
2023-04-18T23:08:09.311Z,46.88
2023-04-18T23:10:37.142Z,46.95
2023-04-18T23:13:05.214Z,46.73
2023-04-18T23:15:33.289Z,46.75
2023-04-18T23:18:01.454Z,46.57
2023-04-18T23:20:30.766Z,46.43
2023-04-18T23:22:58.596Z,46.28
2023-04-18T23:25:26.481Z,46.01
2023-04-18T23:27:54.414Z,45.91
2023-04-18T23:30:22.381Z,46.64
2023-04-18T23:32:50.267Z,46.86
2023-04-18T23:35:18.474Z,47.41
2023-04-18T23:37:47.697Z,47.24
2023-04-18T23:40:15.619Z,47.21
2023-04-18T23:42:43.801Z,47.59
2023-04-18T23:45:12.707Z,47.76
2023-04-18T23:47:40.607Z,47.79
2023-04-18T23:50:09.618Z,47.73
2023-04-18T23:52:38.522Z,47.62
2023-04-18T23:55:08.767Z,47.43
2023-04-18T23:57:36.731Z,47.70
